Bookmark and Share
Track history (hours):
 

Mustafa Dayi

Last reported at 2014-Apr-18 01:31 UTC. Time now 2014-Apr-19 01:59 UTC.
Position N 31°21' E 029°49'.

Length 183 m; draft 9.2 m.

Type: Ship (hazmat cat A). MMSI: 271042433.

NotesDate/timePositionNaut miles runAvg speedWind from/ knotsBaromVisibWave heightAir tempDewpointWater temp
2014-Apr-18 01:31N 31°21' E 029°49'2512.5
2014-Apr-17 23:29N 31°46' E 029°56'25213.7
2014-Apr-17 05:06N 35°23' E 032°31'1014.2
2014-Apr-17 04:24N 35°28' E 032°41'1213.8
2014-Apr-17 03:32N 35°35' E 032°53'23 0.8
2014-Apr-15 21:29N 35°58' E 032°53'32912.7
2014-Apr-14 19:33N 36°10' E 026°06'1313.2
2014-Apr-14 18:34N 36°11' E 025°50'1313.0
2014-Apr-14 17:33N 36°11' E 025°34'1313.1
2014-Apr-14 16:34N 36°10' E 025°18'1413.7
2014-Apr-14 15:34N 36°11' E 025°01'1413.5
2014-Apr-14 14:34N 36°12' E 024°44'1313.2
2014-Apr-14 13:33N 36°13' E 024°28'2813.3
2014-Apr-14 11:30N 36°15' E 023°54'1313.4
2014-Apr-14 10:32N 36°18' E 023°38'44913.8
2014-Apr-13 02:08N 36°30' E 014°21'813.4
2014-Apr-13 01:30N 36°32' E 014°11'1313.5
2014-Apr-13 00:33N 36°35' E 013°55'3013.9
2014-Apr-12 22:23N 36°44' E 013°19'1213.8
2014-Apr-12 21:32N 36°47' E 013°05'1713.3
2014-Apr-12 20:17N 36°51' E 012°45'1513.2
2014-Apr-12 19:10N 36°55' E 012°27'3413.2
2014-Apr-12 16:33N 37°07' E 011°47'1313.1
2014-Apr-12 15:33N 37°13' E 011°33'1313.2
2014-Apr-12 14:33N 37°19' E 011°18'1313.4
2014-Apr-12 13:33N 37°25' E 011°02'1313.4
2014-Apr-12 12:33N 37°28' E 010°46'1413.9
2014-Apr-12 11:33N 37°31' E 010°29'1614.2
2014-Apr-12 10:26N 37°34' E 010°09'1314.0
2014-Apr-12 09:33N 37°32' E 009°54'1514.6
2014-Apr-12 08:32N 37°27' E 009°36'1414.0
2014-Apr-12 07:31N 37°23' E 009°19'1414.3
2014-Apr-12 06:33N 37°20' E 009°02'1514.6
2014-Apr-12 05:33N 37°19' E 008°43'1414.7
2014-Apr-12 04:34N 37°18' E 008°25'1514.7
2014-Apr-12 03:33N 37°18' E 008°07'9314.6
2014-Apr-11 21:10N 37°12' E 006°10'1014.4
2014-Apr-11 20:30N 37°12' E 005°58'1514.1
2014-Apr-11 19:27N 37°11' E 005°39'7214.5
2014-Apr-11 14:31N 37°06' E 004°10'1414.7
2014-Apr-11 13:33N 37°04' E 003°52'1514.6
2014-Apr-11 12:33N 37°02' E 003°34'1414.0
2014-Apr-11 11:33N 37°00' E 003°16'1413.8
2014-Apr-11 10:33N 36°57' E 002°60'1514.7
2014-Apr-11 09:33N 36°55' E 002°42'1514.5
2014-Apr-11 08:33N 36°54' E 002°23'1414.1
2014-Apr-11 07:32N 36°52' E 002°06'1414.3
2014-Apr-11 06:33N 36°49' E 001°48'3115.2
2014-Apr-11 04:29N 36°44' E 001°10'4314.3
2014-Apr-11 01:30N 36°38' E 000°17'2713.9
2014-Apr-10 23:31N 36°32' W 000°16'3013.7
2014-Apr-10 21:22N 36°25' W 000°52'1113.8
2014-Apr-10 20:33N 36°24' W 001°06'1514.6
2014-Apr-10 19:33N 36°22' W 001°24'2914.3
2014-Apr-10 17:33N 36°17' W 001°59'16013.3
2014-Apr-10 05:34N 35°59' W 005°15'1515.0
2014-Apr-10 04:32N 35°56' W 005°34'1313.3
2014-Apr-10 03:33N 35°55' W 005°50'1412.7
2014-Apr-10 02:25N 35°55' W 006°08'1112.2
2014-Apr-10 01:32N 35°53' W 006°21'5111.8
2014-Apr-09 21:13N 35°49' W 007°24'812.0
2014-Apr-09 20:32N 35°49' W 007°34'3913.0
2014-Apr-09 17:33N 35°46' W 008°22'1513.5
2014-Apr-09 16:24N 35°44' W 008°41'8013.7
2014-Apr-09 10:33N 35°38' W 010°19'1814.1
2014-Apr-09 09:15N 35°37' W 010°41'2513.9
2014-Apr-09 07:26N 35°35' W 011°13'  

Dump ship's entire track history

sailing weather and tide predictions

Mustafa Dayi — TCZF2 — position and weather